Terminal Aerodrome Forecast
Issued by NWS

Home | Current Version | Previous Version | Text Only | Print | Product List | Glossary On
Versions: 1 2 3 4 5 6 7 8 9 10 11 12 13 14
000
FTUS46 KSGX 162300
TAFPSP
TAF
KPSP 162320Z 1700/1724 12008KT P6SM SCT070 SCT120
     FM170200 VRB06KT P6SM FEW070 SCT120
     FM172000 12008KT P6SM SCT070 SCT120=

USA.gov is the U.S. government's official web portal to all federal, state and local government web resources and services.